sensor_id;sensor_type;location;lat;lon;timestamp;P1;durP1;ratioP1;P2;durP2;ratioP2
19235;SDS011;9752;54.270;12.470;2022-12-01T00:01:52;162.97;;;70.87;;
19235;SDS011;9752;54.270;12.470;2022-12-01T00:06:55;174.67;;;75.50;;
19235;SDS011;9752;54.270;12.470;2022-12-01T00:11:57;159.80;;;71.17;;
19235;SDS011;9752;54.270;12.470;2022-12-01T00:16:58;164.23;;;72.80;;
19235;SDS011;9752;54.270;12.470;2022-12-01T00:22:01;189.60;;;76.17;;
19235;SDS011;9752;54.270;12.470;2022-12-01T00:27:03;172.40;;;76.20;;
19235;SDS011;9752;54.270;12.470;2022-12-01T00:32:05;176.10;;;76.03;;
19235;SDS011;9752;54.270;12.470;2022-12-01T00:37:08;186.97;;;81.53;;
19235;SDS011;9752;54.270;12.470;2022-12-01T00:42:09;183.17;;;79.63;;
19235;SDS011;9752;54.270;12.470;2022-12-01T00:47:11;197.03;;;81.23;;
19235;SDS011;9752;54.270;12.470;2022-12-01T00:52:15;188.67;;;75.83;;
19235;SDS011;9752;54.270;12.470;2022-12-01T00:57:17;196.80;;;81.53;;
19235;SDS011;9752;54.270;12.470;2022-12-01T01:02:19;211.43;;;83.07;;
19235;SDS011;9752;54.270;12.470;2022-12-01T01:07:22;224.63;;;82.47;;
19235;SDS011;9752;54.270;12.470;2022-12-01T01:12:24;232.73;;;83.47;;
19235;SDS011;9752;54.270;12.470;2022-12-01T01:17:25;266.13;;;91.97;;
19235;SDS011;9752;54.270;12.470;2022-12-01T01:22:28;259.07;;;90.17;;
19235;SDS011;9752;54.270;12.470;2022-12-01T01:27:30;240.60;;;85.20;;
19235;SDS011;9752;54.270;12.470;2022-12-01T01:32:32;241.07;;;84.73;;
19235;SDS011;9752;54.270;12.470;2022-12-01T01:37:35;240.40;;;82.83;;
19235;SDS011;9752;54.270;12.470;2022-12-01T01:42:36;233.73;;;81.07;;
19235;SDS011;9752;54.270;12.470;2022-12-01T01:47:38;277.27;;;93.57;;
19235;SDS011;9752;54.270;12.470;2022-12-01T01:52:43;254.87;;;86.13;;
19235;SDS011;9752;54.270;12.470;2022-12-01T01:57:48;221.43;;;78.00;;
19235;SDS011;9752;54.270;12.470;2022-12-01T02:02:50;240.50;;;81.17;;
19235;SDS011;9752;54.270;12.470;2022-12-01T02:07:55;246.77;;;86.10;;
19235;SDS011;9752;54.270;12.470;2022-12-01T02:13:02;248.17;;;81.67;;
19235;SDS011;9752;54.270;12.470;2022-12-01T02:18:19;203.00;;;72.33;;
19235;SDS011;9752;54.270;12.470;2022-12-01T02:23:34;218.87;;;72.60;;
19235;SDS011;9752;54.270;12.470;2022-12-01T02:29:03;248.93;;;81.47;;
19235;SDS011;9752;54.270;12.470;2022-12-01T02:34:18;216.90;;;74.83;;
19235;SDS011;9752;54.270;12.470;2022-12-01T02:39:28;217.23;;;75.53;;
19235;SDS011;9752;54.270;12.470;2022-12-01T02:44:34;217.07;;;79.60;;
19235;SDS011;9752;54.270;12.470;2022-12-01T02:49:41;217.37;;;72.90;;
19235;SDS011;9752;54.270;12.470;2022-12-01T02:54:47;194.23;;;65.80;;
19235;SDS011;9752;54.270;12.470;2022-12-01T02:59:51;206.53;;;71.57;;
19235;SDS011;9752;54.270;12.470;2022-12-01T03:04:57;228.93;;;75.60;;
19235;SDS011;9752;54.270;12.470;2022-12-01T03:10:07;242.57;;;77.37;;
19235;SDS011;9752;54.270;12.470;2022-12-01T03:15:18;240.63;;;75.53;;
19235;SDS011;9752;54.270;12.470;2022-12-01T03:20:37;216.60;;;71.23;;
19235;SDS011;9752;54.270;12.470;2022-12-01T03:25:42;257.80;;;77.57;;
19235;SDS011;9752;54.270;12.470;2022-12-01T03:30:47;256.37;;;80.90;;
19235;SDS011;9752;54.270;12.470;2022-12-01T03:35:54;283.87;;;81.90;;
19235;SDS011;9752;54.270;12.470;2022-12-01T03:41:00;220.27;;;70.57;;
19235;SDS011;9752;54.270;12.470;2022-12-01T03:46:08;270.17;;;84.43;;
19235;SDS011;9752;54.270;12.470;2022-12-01T03:51:17;233.37;;;73.90;;
19235;SDS011;9752;54.270;12.470;2022-12-01T03:56:28;218.53;;;73.53;;
19235;SDS011;9752;54.270;12.470;2022-12-01T04:01:37;273.07;;;82.47;;
19235;SDS011;9752;54.270;12.470;2022-12-01T04:06:41;302.03;;;85.87;;
19235;SDS011;9752;54.270;12.470;2022-12-01T04:11:46;301.73;;;87.73;;
19235;SDS011;9752;54.270;12.470;2022-12-01T04:17:04;279.30;;;81.60;;
19235;SDS011;9752;54.270;12.470;2022-12-01T04:22:08;248.37;;;75.67;;
19235;SDS011;9752;54.270;12.470;2022-12-01T04:27:10;225.53;;;71.80;;
19235;SDS011;9752;54.270;12.470;2022-12-01T04:32:13;227.00;;;71.77;;
19235;SDS011;9752;54.270;12.470;2022-12-01T04:37:16;203.70;;;65.07;;
19235;SDS011;9752;54.270;12.470;2022-12-01T04:42:18;179.30;;;65.13;;
19235;SDS011;9752;54.270;12.470;2022-12-01T04:47:19;175.50;;;58.27;;
19235;SDS011;9752;54.270;12.470;2022-12-01T04:52:22;171.67;;;56.93;;
19235;SDS011;9752;54.270;12.470;2022-12-01T04:57:24;179.93;;;61.30;;
19235;SDS011;9752;54.270;12.470;2022-12-01T05:02:26;165.43;;;56.87;;
19235;SDS011;9752;54.270;12.470;2022-12-01T05:07:29;159.40;;;55.63;;
19235;SDS011;9752;54.270;12.470;2022-12-01T05:12:31;151.57;;;59.30;;
19235;SDS011;9752;54.270;12.470;2022-12-01T05:17:33;160.40;;;57.23;;
19235;SDS011;9752;54.270;12.470;2022-12-01T05:22:36;164.57;;;55.27;;
19235;SDS011;9752;54.270;12.470;2022-12-01T05:27:37;156.80;;;59.00;;
19235;SDS011;9752;54.270;12.470;2022-12-01T05:32:39;155.97;;;57.70;;
19235;SDS011;9752;54.270;12.470;2022-12-01T05:37:42;135.40;;;50.27;;
19235;SDS011;9752;54.270;12.470;2022-12-01T05:42:44;130.90;;;50.93;;
19235;SDS011;9752;54.270;12.470;2022-12-01T05:47:45;142.83;;;53.07;;
19235;SDS011;9752;54.270;12.470;2022-12-01T05:52:49;154.10;;;54.70;;
19235;SDS011;9752;54.270;12.470;2022-12-01T05:57:50;142.27;;;53.03;;
19235;SDS011;9752;54.270;12.470;2022-12-01T06:02:52;124.73;;;49.30;;
19235;SDS011;9752;54.270;12.470;2022-12-01T06:07:55;114.80;;;41.77;;
19235;SDS011;9752;54.270;12.470;2022-12-01T06:12:57;122.03;;;45.87;;
19235;SDS011;9752;54.270;12.470;2022-12-01T06:17:58;130.10;;;46.67;;
19235;SDS011;9752;54.270;12.470;2022-12-01T06:23:02;142.20;;;49.97;;
19235;SDS011;9752;54.270;12.470;2022-12-01T06:28:03;128.33;;;50.23;;
19235;SDS011;9752;54.270;12.470;2022-12-01T06:33:05;125.97;;;47.53;;
19235;SDS011;9752;54.270;12.470;2022-12-01T06:38:08;136.00;;;52.00;;
19235;SDS011;9752;54.270;12.470;2022-12-01T06:43:10;145.47;;;54.63;;
19235;SDS011;9752;54.270;12.470;2022-12-01T06:48:12;148.43;;;52.77;;
19235;SDS011;9752;54.270;12.470;2022-12-01T06:53:15;136.17;;;50.43;;
19235;SDS011;9752;54.270;12.470;2022-12-01T06:58:16;130.00;;;50.90;;
19235;SDS011;9752;54.270;12.470;2022-12-01T07:03:18;145.53;;;55.83;;
19235;SDS011;9752;54.270;12.470;2022-12-01T07:08:21;138.03;;;50.90;;
19235;SDS011;9752;54.270;12.470;2022-12-01T07:13:23;138.83;;;51.93;;
19235;SDS011;9752;54.270;12.470;2022-12-01T07:18:25;146.50;;;52.87;;
19235;SDS011;9752;54.270;12.470;2022-12-01T07:23:28;135.77;;;49.63;;
19235;SDS011;9752;54.270;12.470;2022-12-01T07:28:30;136.30;;;52.13;;
19235;SDS011;9752;54.270;12.470;2022-12-01T07:33:32;123.87;;;52.13;;
19235;SDS011;9752;54.270;12.470;2022-12-01T07:38:35;142.30;;;54.70;;
19235;SDS011;9752;54.270;12.470;2022-12-01T07:43:37;147.00;;;51.40;;
19235;SDS011;9752;54.270;12.470;2022-12-01T07:48:40;144.43;;;51.73;;
19235;SDS011;9752;54.270;12.470;2022-12-01T07:53:43;140.63;;;51.13;;
19235;SDS011;9752;54.270;12.470;2022-12-01T07:58:45;153.10;;;55.30;;
19235;SDS011;9752;54.270;12.470;2022-12-01T08:03:47;160.00;;;56.90;;
19235;SDS011;9752;54.270;12.470;2022-12-01T08:08:51;136.33;;;50.93;;
19235;SDS011;9752;54.270;12.470;2022-12-01T08:13:53;142.57;;;56.27;;
19235;SDS011;9752;54.270;12.470;2022-12-01T08:18:54;147.47;;;55.20;;
19235;SDS011;9752;54.270;12.470;2022-12-01T08:23:57;171.03;;;61.20;;
19235;SDS011;9752;54.270;12.470;2022-12-01T08:28:59;139.33;;;52.93;;
19235;SDS011;9752;54.270;12.470;2022-12-01T08:34:03;148.07;;;54.10;;
19235;SDS011;9752;54.270;12.470;2022-12-01T08:39:07;171.63;;;56.57;;
19235;SDS011;9752;54.270;12.470;2022-12-01T08:44:09;158.47;;;59.10;;
19235;SDS011;9752;54.270;12.470;2022-12-01T08:49:11;169.30;;;57.53;;
19235;SDS011;9752;54.270;12.470;2022-12-01T08:54:14;173.00;;;62.77;;
19235;SDS011;9752;54.270;12.470;2022-12-01T08:59:15;184.20;;;66.97;;
19235;SDS011;9752;54.270;12.470;2022-12-01T09:04:17;187.10;;;64.60;;
19235;SDS011;9752;54.270;12.470;2022-12-01T09:09:22;159.90;;;58.47;;
19235;SDS011;9752;54.270;12.470;2022-12-01T09:14:25;167.67;;;59.30;;
19235;SDS011;9752;54.270;12.470;2022-12-01T09:19:27;187.50;;;64.60;;
19235;SDS011;9752;54.270;12.470;2022-12-01T09:24:30;190.63;;;62.90;;
19235;SDS011;9752;54.270;12.470;2022-12-01T09:29:32;216.53;;;65.97;;
19235;SDS011;9752;54.270;12.470;2022-12-01T09:34:34;180.10;;;61.73;;
19235;SDS011;9752;54.270;12.470;2022-12-01T09:39:37;184.27;;;63.00;;
19235;SDS011;9752;54.270;12.470;2022-12-01T09:44:39;210.47;;;65.30;;
19235;SDS011;9752;54.270;12.470;2022-12-01T09:49:48;210.97;;;68.27;;
19235;SDS011;9752;54.270;12.470;2022-12-01T09:54:57;187.23;;;63.30;;
19235;SDS011;9752;54.270;12.470;2022-12-01T10:00:02;202.10;;;65.37;;
19235;SDS011;9752;54.270;12.470;2022-12-01T10:05:13;172.93;;;61.70;;
19235;SDS011;9752;54.270;12.470;2022-12-01T10:10:22;187.63;;;63.57;;
19235;SDS011;9752;54.270;12.470;2022-12-01T10:15:31;186.87;;;67.37;;
19235;SDS011;9752;54.270;12.470;2022-12-01T10:20:40;165.50;;;57.87;;
19235;SDS011;9752;54.270;12.470;2022-12-01T10:25:52;194.93;;;64.87;;
19235;SDS011;9752;54.270;12.470;2022-12-01T10:30:58;177.30;;;64.13;;
19235;SDS011;9752;54.270;12.470;2022-12-01T10:36:07;177.87;;;63.37;;
19235;SDS011;9752;54.270;12.470;2022-12-01T10:41:12;177.90;;;62.53;;
19235;SDS011;9752;54.270;12.470;2022-12-01T10:46:18;211.63;;;71.40;;
19235;SDS011;9752;54.270;12.470;2022-12-01T10:51:25;218.13;;;70.13;;
19235;SDS011;9752;54.270;12.470;2022-12-01T10:56:29;173.17;;;63.03;;
19235;SDS011;9752;54.270;12.470;2022-12-01T11:01:32;186.90;;;65.10;;
19235;SDS011;9752;54.270;12.470;2022-12-01T11:06:35;194.60;;;60.50;;
19235;SDS011;9752;54.270;12.470;2022-12-01T11:11:39;194.67;;;65.47;;
19235;SDS011;9752;54.270;12.470;2022-12-01T11:16:42;197.07;;;68.50;;
19235;SDS011;9752;54.270;12.470;2022-12-01T11:21:46;192.57;;;64.57;;
19235;SDS011;9752;54.270;12.470;2022-12-01T11:26:50;207.33;;;66.93;;
19235;SDS011;9752;54.270;12.470;2022-12-01T11:31:52;178.07;;;68.73;;
19235;SDS011;9752;54.270;12.470;2022-12-01T11:36:55;185.50;;;66.63;;
19235;SDS011;9752;54.270;12.470;2022-12-01T11:42:01;180.97;;;65.30;;
19235;SDS011;9752;54.270;12.470;2022-12-01T11:47:12;159.70;;;61.03;;
19235;SDS011;9752;54.270;12.470;2022-12-01T11:52:21;157.40;;;59.20;;
19235;SDS011;9752;54.270;12.470;2022-12-01T11:57:29;154.67;;;60.60;;
19235;SDS011;9752;54.270;12.470;2022-12-01T12:02:34;162.37;;;58.70;;
19235;SDS011;9752;54.270;12.470;2022-12-01T12:07:47;144.07;;;58.30;;
19235;SDS011;9752;54.270;12.470;2022-12-01T12:13:03;144.63;;;59.30;;
19235;SDS011;9752;54.270;12.470;2022-12-01T12:18:20;160.70;;;62.43;;
19235;SDS011;9752;54.270;12.470;2022-12-01T12:29:11;154.03;;;58.23;;
19235;SDS011;9752;54.270;12.470;2022-12-01T12:34:28;136.70;;;56.83;;
19235;SDS011;9752;54.270;12.470;2022-12-01T12:39:44;141.47;;;57.27;;
19235;SDS011;9752;54.270;12.470;2022-12-01T12:45:00;136.10;;;55.27;;
19235;SDS011;9752;54.270;12.470;2022-12-01T12:50:14;133.87;;;55.73;;
19235;SDS011;9752;54.270;12.470;2022-12-01T12:55:24;131.10;;;54.57;;
19235;SDS011;9752;54.270;12.470;2022-12-01T13:00:31;130.13;;;54.23;;
19235;SDS011;9752;54.270;12.470;2022-12-01T13:05:37;123.83;;;54.03;;
19235;SDS011;9752;54.270;12.470;2022-12-01T13:10:46;122.67;;;54.37;;
19235;SDS011;9752;54.270;12.470;2022-12-01T13:15:54;122.87;;;50.53;;
19235;SDS011;9752;54.270;12.470;2022-12-01T13:20:58;131.67;;;54.37;;
19235;SDS011;9752;54.270;12.470;2022-12-01T13:26:03;128.73;;;51.90;;
19235;SDS011;9752;54.270;12.470;2022-12-01T13:31:11;120.73;;;53.87;;
19235;SDS011;9752;54.270;12.470;2022-12-01T13:36:14;118.30;;;49.30;;
19235;SDS011;9752;54.270;12.470;2022-12-01T13:41:20;132.23;;;54.27;;
19235;SDS011;9752;54.270;12.470;2022-12-01T13:46:26;110.60;;;49.03;;
19235;SDS011;9752;54.270;12.470;2022-12-01T13:57:10;121.20;;;52.83;;
19235;SDS011;9752;54.270;12.470;2022-12-01T14:02:15;134.10;;;54.10;;
19235;SDS011;9752;54.270;12.470;2022-12-01T14:07:25;125.17;;;49.67;;
19235;SDS011;9752;54.270;12.470;2022-12-01T14:12:33;126.57;;;52.37;;
19235;SDS011;9752;54.270;12.470;2022-12-01T14:17:38;116.83;;;51.23;;
19235;SDS011;9752;54.270;12.470;2022-12-01T14:22:41;120.10;;;50.60;;
19235;SDS011;9752;54.270;12.470;2022-12-01T14:27:46;124.80;;;52.33;;
19235;SDS011;9752;54.270;12.470;2022-12-01T14:32:51;128.67;;;53.77;;
19235;SDS011;9752;54.270;12.470;2022-12-01T14:37:52;113.10;;;47.70;;
19235;SDS011;9752;54.270;12.470;2022-12-01T14:42:55;109.63;;;48.90;;
19235;SDS011;9752;54.270;12.470;2022-12-01T14:48:17;123.57;;;54.50;;
19235;SDS011;9752;54.270;12.470;2022-12-01T14:53:25;125.93;;;52.47;;
19235;SDS011;9752;54.270;12.470;2022-12-01T14:58:30;121.33;;;52.83;;
19235;SDS011;9752;54.270;12.470;2022-12-01T15:03:36;136.83;;;56.50;;
19235;SDS011;9752;54.270;12.470;2022-12-01T15:08:40;132.20;;;53.93;;
19235;SDS011;9752;54.270;12.470;2022-12-01T15:13:44;147.87;;;58.17;;
19235;SDS011;9752;54.270;12.470;2022-12-01T15:18:50;146.83;;;60.00;;
19235;SDS011;9752;54.270;12.470;2022-12-01T15:23:56;169.20;;;65.07;;
19235;SDS011;9752;54.270;12.470;2022-12-01T15:29:02;181.87;;;67.57;;
19235;SDS011;9752;54.270;12.470;2022-12-01T15:34:18;169.07;;;62.87;;
19235;SDS011;9752;54.270;12.470;2022-12-01T15:39:27;171.20;;;63.13;;
19235;SDS011;9752;54.270;12.470;2022-12-01T15:44:34;155.33;;;60.63;;
19235;SDS011;9752;54.270;12.470;2022-12-01T15:49:46;149.23;;;62.87;;
19235;SDS011;9752;54.270;12.470;2022-12-01T15:54:48;141.70;;;57.47;;
19235;SDS011;9752;54.270;12.470;2022-12-01T15:59:51;155.33;;;60.07;;
19235;SDS011;9752;54.270;12.470;2022-12-01T16:05:03;134.53;;;57.93;;
19235;SDS011;9752;54.270;12.470;2022-12-01T16:10:23;134.83;;;56.03;;
19235;SDS011;9752;54.270;12.470;2022-12-01T16:15:27;124.77;;;53.27;;
19235;SDS011;9752;54.270;12.470;2022-12-01T16:20:31;116.27;;;50.47;;
19235;SDS011;9752;54.270;12.470;2022-12-01T16:25:35;120.63;;;49.43;;
19235;SDS011;9752;54.270;12.470;2022-12-01T16:30:41;102.33;;;47.80;;
19235;SDS011;9752;54.270;12.470;2022-12-01T16:35:44;106.17;;;46.87;;
19235;SDS011;9752;54.270;12.470;2022-12-01T16:40:46;110.50;;;49.80;;
19235;SDS011;9752;54.270;12.470;2022-12-01T16:45:49;110.50;;;46.50;;
19235;SDS011;9752;54.270;12.470;2022-12-01T16:51:01;94.90;;;41.77;;
19235;SDS011;9752;54.270;12.470;2022-12-01T16:56:05;99.90;;;46.53;;
19235;SDS011;9752;54.270;12.470;2022-12-01T17:01:07;106.33;;;46.70;;
19235;SDS011;9752;54.270;12.470;2022-12-01T17:06:11;97.90;;;45.03;;
19235;SDS011;9752;54.270;12.470;2022-12-01T17:11:19;95.20;;;42.37;;
19235;SDS011;9752;54.270;12.470;2022-12-01T17:16:20;104.23;;;46.50;;
19235;SDS011;9752;54.270;12.470;2022-12-01T17:21:23;103.30;;;45.47;;
19235;SDS011;9752;54.270;12.470;2022-12-01T17:26:25;107.77;;;48.53;;
19235;SDS011;9752;54.270;12.470;2022-12-01T17:31:27;94.50;;;42.97;;
19235;SDS011;9752;54.270;12.470;2022-12-01T17:36:30;102.20;;;47.00;;
19235;SDS011;9752;54.270;12.470;2022-12-01T17:41:31;102.97;;;44.53;;
19235;SDS011;9752;54.270;12.470;2022-12-01T17:46:34;100.37;;;45.13;;
19235;SDS011;9752;54.270;12.470;2022-12-01T17:51:38;95.43;;;46.23;;
19235;SDS011;9752;54.270;12.470;2022-12-01T17:56:41;114.60;;;49.00;;
19235;SDS011;9752;54.270;12.470;2022-12-01T18:01:42;116.07;;;47.10;;
19235;SDS011;9752;54.270;12.470;2022-12-01T18:06:46;114.43;;;49.97;;
19235;SDS011;9752;54.270;12.470;2022-12-01T18:11:47;98.20;;;44.87;;
19235;SDS011;9752;54.270;12.470;2022-12-01T18:16:50;95.00;;;46.63;;
19235;SDS011;9752;54.270;12.470;2022-12-01T18:21:53;111.37;;;48.20;;
19235;SDS011;9752;54.270;12.470;2022-12-01T18:26:55;117.10;;;49.30;;
19235;SDS011;9752;54.270;12.470;2022-12-01T18:31:58;104.87;;;48.30;;
19235;SDS011;9752;54.270;12.470;2022-12-01T18:37:01;116.00;;;47.90;;
19235;SDS011;9752;54.270;12.470;2022-12-01T18:42:05;121.43;;;51.20;;
19235;SDS011;9752;54.270;12.470;2022-12-01T18:47:06;123.07;;;52.33;;
19235;SDS011;9752;54.270;12.470;2022-12-01T18:52:10;115.83;;;52.60;;
19235;SDS011;9752;54.270;12.470;2022-12-01T18:57:11;126.20;;;52.73;;
19235;SDS011;9752;54.270;12.470;2022-12-01T19:02:13;121.17;;;51.90;;
19235;SDS011;9752;54.270;12.470;2022-12-01T19:07:16;109.83;;;50.57;;
19235;SDS011;9752;54.270;12.470;2022-12-01T19:12:19;105.47;;;48.57;;
19235;SDS011;9752;54.270;12.470;2022-12-01T19:17:20;111.77;;;48.87;;
19235;SDS011;9752;54.270;12.470;2022-12-01T19:22:23;122.20;;;49.63;;
19235;SDS011;9752;54.270;12.470;2022-12-01T19:27:26;118.27;;;49.47;;
19235;SDS011;9752;54.270;12.470;2022-12-01T19:32:29;129.23;;;51.77;;
19235;SDS011;9752;54.270;12.470;2022-12-01T19:37:32;117.53;;;50.53;;
19235;SDS011;9752;54.270;12.470;2022-12-01T19:42:34;116.70;;;48.40;;
19235;SDS011;9752;54.270;12.470;2022-12-01T19:47:36;130.60;;;51.70;;
19235;SDS011;9752;54.270;12.470;2022-12-01T19:52:39;120.97;;;50.20;;
19235;SDS011;9752;54.270;12.470;2022-12-01T19:57:43;117.80;;;51.13;;
19235;SDS011;9752;54.270;12.470;2022-12-01T20:02:45;109.87;;;49.37;;
19235;SDS011;9752;54.270;12.470;2022-12-01T20:07:48;104.00;;;45.57;;
19235;SDS011;9752;54.270;12.470;2022-12-01T20:12:49;107.30;;;46.53;;
19235;SDS011;9752;54.270;12.470;2022-12-01T20:17:51;102.13;;;46.33;;
19235;SDS011;9752;54.270;12.470;2022-12-01T20:22:54;104.67;;;48.80;;
19235;SDS011;9752;54.270;12.470;2022-12-01T20:27:56;110.27;;;49.93;;
19235;SDS011;9752;54.270;12.470;2022-12-01T20:32:58;116.23;;;52.07;;
19235;SDS011;9752;54.270;12.470;2022-12-01T20:38:01;98.43;;;46.87;;
19235;SDS011;9752;54.270;12.470;2022-12-01T20:43:02;113.57;;;49.83;;
19235;SDS011;9752;54.270;12.470;2022-12-01T20:48:04;104.03;;;46.37;;
19235;SDS011;9752;54.270;12.470;2022-12-01T20:53:08;114.73;;;50.93;;
19235;SDS011;9752;54.270;12.470;2022-12-01T20:58:09;115.20;;;49.33;;
19235;SDS011;9752;54.270;12.470;2022-12-01T21:03:12;122.13;;;49.80;;
19235;SDS011;9752;54.270;12.470;2022-12-01T21:08:15;125.37;;;53.13;;
19235;SDS011;9752;54.270;12.470;2022-12-01T21:13:18;109.73;;;48.40;;
19235;SDS011;9752;54.270;12.470;2022-12-01T21:18:42;111.47;;;47.13;;
19235;SDS011;9752;54.270;12.470;2022-12-01T21:23:57;110.60;;;49.63;;
19235;SDS011;9752;54.270;12.470;2022-12-01T21:29:14;101.37;;;45.97;;
19235;SDS011;9752;54.270;12.470;2022-12-01T21:34:19;104.80;;;48.60;;
19235;SDS011;9752;54.270;12.470;2022-12-01T21:39:24;112.40;;;47.10;;
19235;SDS011;9752;54.270;12.470;2022-12-01T21:44:27;107.00;;;48.17;;
19235;SDS011;9752;54.270;12.470;2022-12-01T21:49:34;107.23;;;47.60;;
19235;SDS011;9752;54.270;12.470;2022-12-01T21:54:39;95.13;;;43.67;;
19235;SDS011;9752;54.270;12.470;2022-12-01T21:59:41;106.83;;;47.20;;
19235;SDS011;9752;54.270;12.470;2022-12-01T22:04:42;104.17;;;47.20;;
19235;SDS011;9752;54.270;12.470;2022-12-01T22:09:45;108.47;;;48.20;;
19235;SDS011;9752;54.270;12.470;2022-12-01T22:14:48;118.77;;;50.83;;
19235;SDS011;9752;54.270;12.470;2022-12-01T22:19:52;109.20;;;48.77;;
19235;SDS011;9752;54.270;12.470;2022-12-01T22:24:59;117.40;;;49.10;;
19235;SDS011;9752;54.270;12.470;2022-12-01T22:30:22;117.93;;;51.13;;
19235;SDS011;9752;54.270;12.470;2022-12-01T22:35:26;122.10;;;48.67;;
19235;SDS011;9752;54.270;12.470;2022-12-01T22:40:34;114.23;;;47.97;;
19235;SDS011;9752;54.270;12.470;2022-12-01T22:45:37;112.77;;;49.50;;
19235;SDS011;9752;54.270;12.470;2022-12-01T22:50:39;119.30;;;50.37;;
19235;SDS011;9752;54.270;12.470;2022-12-01T22:55:42;108.27;;;46.70;;
19235;SDS011;9752;54.270;12.470;2022-12-01T23:00:47;108.30;;;48.40;;
19235;SDS011;9752;54.270;12.470;2022-12-01T23:05:49;107.90;;;49.97;;
19235;SDS011;9752;54.270;12.470;2022-12-01T23:10:56;113.03;;;48.40;;
19235;SDS011;9752;54.270;12.470;2022-12-01T23:15:58;109.63;;;47.17;;
19235;SDS011;9752;54.270;12.470;2022-12-01T23:21:00;121.37;;;50.33;;
19235;SDS011;9752;54.270;12.470;2022-12-01T23:26:05;117.17;;;51.10;;
19235;SDS011;9752;54.270;12.470;2022-12-01T23:31:08;120.30;;;49.93;;
19235;SDS011;9752;54.270;12.470;2022-12-01T23:36:11;113.23;;;49.50;;
19235;SDS011;9752;54.270;12.470;2022-12-01T23:41:19;113.70;;;49.90;;
19235;SDS011;9752;54.270;12.470;2022-12-01T23:46:23;109.70;;;46.87;;
19235;SDS011;9752;54.270;12.470;2022-12-01T23:51:27;108.37;;;49.10;;
19235;SDS011;9752;54.270;12.470;2022-12-01T23:56:32;108.73;;;50.23;;
